19:31
Airports
History
Links
Donate
Help keep this website running!
PayPal
Bitcoin
Information on this page is community maintained and may be outdated or inaccurate and is intended for reference only or PC simulator navigating.
Always use approved charts for navigating.
LECO
A CorunaEdited 07-Mar-2012
A Coruna (LECO)
Culleredo, Galicia, Spain (15180)
(C)
Lat/Lng:43° 18' 8.15" N / 8° 22' 37.52" W
43.302264 / -8.377088
Elevation:323'ft 98mMSL
ID / ICAO:LECO
Runways:1
Longest:(04-22) 1,931.2m 6,336ft Asphalt
Controlled:Yes
Beacon:White-Green
Distance To
Airport ID:
Airport Radio Frequencies
Ground: 121.7
Tower: 118.3
Approach: 120.2
Nearby VORs <50NM
Nearby NDBs
METARUpdated 05-27-17 19:00 GMT
Altimeter: 29.94
Visibility: 5.6 statute miles
Wind: 4 knots (020°)
Temp: 17°c 63°f
Humidity: 88.0%

METAR: LECO 271900Z 02004KT 310V050 9000 BKN014 17/15 Q1014 NOSIG

(Powered by phpweather)
Runway 04 / 22
Dimensions:1931.2 x 45.1m 6336' x 148'ft
Surface:Asphalt
Edge Lights:Medium intensity
Runway 04 [A]Runway 22 [B]
Heading:030°TH 210°TH
Lat:
Lng:
43° 17' 41.22"N
8° 22' 59.62"W
43° 18' 35.08"N
8° 22' 15.41"W
ALS:Calvert ILS Cat II
TDZ:Yes, lighted
User Notes and Comments
Google Map
Nearby Airports
(C) Santiago 28.0 NM
LEST (WX) S 183°
(U) Rozas 47.4 NM
LERO ESE 105°
(C) Vigo 75.0 NM
LEVX (WX) S 189°
(U) BRAGA 118.6 NM
LPBR S 181°
(C) Asturias 118.9 NM
LEAS (WX) E 81°
(U) Chaves Airfield 119.3 NM
LPCH SSE 156°
(U) LA MORGAL 128.2 NM
LEMR E 86°
VFR Chart
Flight Planning at SkyVector.com